Flight Track Log - Related Links

Times and Time Zones

All times are in EDT time to prevent confusion due to time zone crossing. See the ASA62 flight status page for this flight to view local times or setup timezone preferences in your user account.

Time Position Orientation Groundspeed Altitude Reporting Facility
EDT Latitude Longitude Course Direction KTS MPH feet Rate Location/Type
Tue 05:19:30 PM 55.2667 -131.6000 167° South 220 253 5,500  Level Anchorage Center
Tue 05:20:30 PM 55.2167 -131.6167 191° South 210 242 7,900 2,550 Climbing Anchorage Center
Tue 05:21:30 PM 55.1500 -131.6333 188° South 270 311 10,600 2,350 Climbing Anchorage Center
Tue 05:22:30 PM 55.0667 -131.6000 167° South 300 345 12,600 2,000 Climbing Anchorage Center
Tue 05:23:30 PM 54.9833 -131.5500 161° South 350 403 14,600 2,281 Climbing Anchorage Center
Tue 05:24:00 PM 54.7930 -131.4705 167° South  Level FlightAware Approximate
Tue 05:24:31 PM 54.8833 -131.5000 164° South 370 426 17,200  Level Anchorage Center
Tue 05:25:30 PM 54.7833 -131.4667 169° South 380 437 19,400 2,269 Climbing Anchorage Center
Tue 05:26:30 PM 54.6667 -131.4167 166° South 390 449 21,700 1,884 Climbing Anchorage Center
Tue 05:27:31 PM 54.5667 -131.3833 169° South 400 460 23,200 1,700 Climbing Anchorage Center
Tue 05:28:30 PM 54.4500 -131.3333 166° South 430 495 25,100 1,750 Climbing Anchorage Center
Tue 05:29:31 PM 54.3500 -131.2333 150° Southeast 440 506 26,700 1,934 Climbing Anchorage Center
Tue 05:30:31 PM 54.2500 -131.0833 139° Southeast 440 506 29,000 2,150 Climbing Anchorage Center
Tue 05:31:31 PM 54.1667 -130.9500 137° Southeast 430 495 31,000 1,800 Climbing Anchorage Center
Tue 05:32:31 PM 54.0833 -130.8167 137° Southeast 420 483 32,600 1,000 Climbing Anchorage Center
Tue 05:33:31 PM 54.0000 -130.7000 141° Southeast 410 472 33,000 200 Climbing Anchorage Center
Tue 05:34:31 PM 53.9000 -130.5667 142° Southeast 400 460 33,000  Level Anchorage Center
Tue 05:35:24 PM 53.8333 -130.4833 144° Southeast 410 472 33,000  Level Vancouver Center
Tue 05:36:24 PM 53.7500 -130.3833 145° Southeast 410 472 33,000  Level Vancouver Center
Tue 05:37:24 PM 53.6667 -130.2167 130° Southeast 410 472 33,000  Level Vancouver Center
Tue 05:38:24 PM 53.5833 -130.1000 140° Southeast 410 472 33,000  Level Vancouver Center
Tue 05:39:24 PM 53.4833 -129.9667 142° Southeast 410 472 33,000  Level Vancouver Center
Tue 05:40:24 PM 53.4167 -129.8500 134° Southeast 410 472 33,000  Level Vancouver Center
Tue 05:41:24 PM 53.3167 -129.7167 141° Southeast 410 472 33,000  Level Vancouver Center
Tue 05:42:24 PM 53.2167 -129.6000 145° Southeast 410 472 33,000  Level Vancouver Center
Tue 05:43:24 PM 53.1500 -129.4833 134° Southeast 420 483 33,000  Level Vancouver Center
Tue 05:44:24 PM 53.0500 -129.3500 141° Southeast 420 483 33,000  Level Vancouver Center
Tue 05:45:24 PM 52.9667 -129.2333 140° Southeast 420 483 33,000  Level Vancouver Center
Tue 05:46:24 PM 52.8833 -129.0833 133° Southeast 420 483 33,000  Level Vancouver Center
Tue 05:47:24 PM 52.7833 -128.9667 145° Southeast 430 495 33,000  Level Vancouver Center
Tue 05:48:24 PM 52.6833 -128.8333 141° Southeast 440 506 33,000  Level Vancouver Center
Tue 05:49:24 PM 52.6000 -128.7167 140° Southeast 440 506 33,000  Level Vancouver Center
Tue 05:50:24 PM 52.5000 -128.5667 138° Southeast 440 506 33,000  Level Vancouver Center
Tue 05:51:24 PM 52.4000 -128.4500 145° Southeast 440 506 33,000  Level Vancouver Center
Tue 05:52:24 PM 52.3333 -128.3333 133° Southeast 440 506 33,000  Level Vancouver Center
Tue 05:53:24 PM 52.2167 -128.1833 142° Southeast 440 506 33,000  Level Vancouver Center
Tue 05:54:24 PM 52.1333 -128.0667 139° Southeast 440 506 33,000  Level Vancouver Center
Tue 05:55:24 PM 52.0333 -127.9167 137° Southeast 440 506 33,000  Level Vancouver Center
Tue 05:56:24 PM 51.9500 -127.8000 139° Southeast 440 506 33,000  Level Vancouver Center
Tue 05:57:24 PM 51.8667 -127.6667 135° Southeast 440 506 33,000  Level Vancouver Center
Tue 05:58:24 PM 51.7667 -127.5167 137° Southeast 440 506 33,000  Level Vancouver Center
Tue 05:59:24 PM 51.6667 -127.4000 144° Southeast 440 506 33,000  Level Vancouver Center
Tue 06:00:24 PM 51.5833 -127.2667 135° Southeast 440 506 33,000  Level Vancouver Center
Tue 06:01:24 PM 51.5000 -127.1500 139° Southeast 440 506 33,000  Level Vancouver Center
Tue 06:02:24 PM 51.4000 -127.0167 140° Southeast 430 495 33,000  Level Vancouver Center
Tue 06:03:24 PM 51.3167 -126.9000 139° Southeast 430 495 33,000  Level Vancouver Center
Tue 06:04:24 PM 51.2167 -126.7500 137° Southeast 430 495 33,000  Level Vancouver Center
Tue 06:05:24 PM 51.1167 -126.6167 140° Southeast 440 506 33,000  Level Vancouver Center
Tue 06:06:24 PM 51.0500 -126.5000 132° Southeast 440 506 33,000  Level Vancouver Center
Tue 06:07:24 PM 50.9500 -126.3667 140° Southeast 440 506 33,000  Level Vancouver Center
Tue 06:08:24 PM 50.8500 -126.2500 144° Southeast 440 506 33,000  Level Vancouver Center
Tue 06:09:24 PM 50.7500 -126.1167 140° Southeast 440 506 33,000  Level Vancouver Center
Tue 06:10:24 PM 50.6667 -126.0167 143° Southeast 440 506 33,000  Level Vancouver Center
Tue 06:11:24 PM 50.5667 -125.8833 140° Southeast 440 506 33,000  Level Vancouver Center
Tue 06:12:24 PM 50.4833 -125.7333 131° Southeast 440 506 33,000  Level Vancouver Center
Tue 06:13:24 PM 50.4000 -125.6333 143° Southeast 440 506 33,000  Level Vancouver Center
Tue 06:14:24 PM 50.3000 -125.5000 140° Southeast 440 506 33,000  Level Vancouver Center
Tue 06:15:24 PM 50.2000 -125.3667 139° Southeast 440 506 33,000  Level Vancouver Center
Tue 06:16:24 PM 50.1167 -125.2500 138° Southeast 450 518 33,000  Level Vancouver Center
Tue 06:17:24 PM 50.0000 -125.1167 144° Southeast 450 518 33,000  Level Vancouver Center
Tue 06:18:24 PM 49.9167 -124.9833 134° Southeast 450 518 33,000  Level Vancouver Center
Tue 06:19:24 PM 49.8167 -124.8833 147° Southeast 450 518 33,000  Level Vancouver Center
Tue 06:20:24 PM 49.7167 -124.7500 139° Southeast 450 518 33,000  Level Vancouver Center
Tue 06:21:24 PM 49.6333 -124.6167 134° Southeast 450 518 33,000  Level Vancouver Center
Tue 06:22:24 PM 49.5333 -124.5000 143° Southeast 450 518 33,000  Level Vancouver Center
Tue 06:23:24 PM 49.4333 -124.3833 143° Southeast 450 518 33,000  Level Vancouver Center
Tue 06:24:24 PM 49.3333 -124.2667 143° Southeast 450 518 33,000  Level Vancouver Center
Tue 06:25:24 PM 49.2333 -124.1333 139° Southeast 450 518 33,000  Level Vancouver Center
Tue 06:26:24 PM 49.1500 -124.0333 142° Southeast 450 518 33,000  Level Vancouver Center
Tue 06:27:24 PM 49.0500 -123.9000 139° Southeast 450 518 33,000  Level Vancouver Center
Tue 06:28:24 PM 48.9500 -123.8000 147° Southeast 450 518 33,000  Level Vancouver Center
Tue 06:29:24 PM 48.8500 -123.6667 139° Southeast 450 518 33,000 -50 Level Vancouver Center
Tue 06:30:24 PM 48.7667 -123.5500 137° Southeast 450 518 32,900 -1,700 Descending Vancouver Center
Tue 06:31:24 PM 48.6500 -123.4500 150° Southeast 450 518 29,600 -3,600 Descending Vancouver Center
Tue 06:32:24 PM 48.5500 -123.3167 139° Southeast 450 518 25,700 -3,600 Descending Vancouver Center
Tue 06:33:24 PM 48.4500 -123.2500 156° South 460 529 22,400 -2,550 Descending Vancouver Center
Tue 06:34:24 PM 48.3500 -123.1500 146° Southeast 440 506 20,600 -1,938 Descending Vancouver Center
Tue 06:35:34 PM 48.2528 -123.0442 144° Southeast 390 449 18,200 -2,015 Descending Seattle Center
Tue 06:36:35 PM 48.1692 -122.9672 148° Southeast 358 412 16,200 -2,059 Descending Seattle Center
Tue 06:37:16 PM 48.1117 -122.9142 148° Southeast 350 403 14,700 -2,164 Descending Seattle Center
Tue 06:37:36 PM 48.0869 -122.8919 149° Southeast 352 405 14,000 -2,066 Descending Seattle Center
Tue 06:38:17 PM 48.0292 -122.8303 144° Southeast 345 397 12,600 -1,574 Descending Seattle Center
Tue 06:38:37 PM 48.0164 -122.8017 124° Southeast 342 394 12,400 -714 Descending Seattle Center
Tue 06:38:59 PM 47.9961 -122.7592 125° Southeast 320 368 12,100 -1,279 Descending Seattle Center
Tue 06:39:38 PM 47.9639 -122.6989 129° Southeast 314 361 11,100 -1,595 Descending Seattle Center
Tue 06:40:18 PM 47.9253 -122.6261 128° Southeast 306 352 10,000 -1,377 Descending Seattle Center
Tue 06:40:39 PM 47.9125 -122.6017 128° Southeast 301 346 9,700 -1,535 Descending Seattle Center
Tue 06:41:01 PM 47.8864 -122.5583 132° Southeast 290 334 8,900 -1,279 Descending Seattle Center
Tue 06:41:40 PM 47.8611 -122.5117 129° Southeast 287 330 8,400 -1,180 Descending Seattle Center
Tue 06:42:02 PM 47.8356 -122.4708 133° Southeast 270 311 7,700 -1,574 Descending Seattle Center
Tue 06:42:41 PM 47.8022 -122.4256 138° Southeast 266 306 6,800 -1,377 Descending Seattle Center
Tue 06:43:03 PM 47.7783 -122.4103 157° South 256 295 6,300 -984 Descending Seattle Center
Tue 06:43:42 PM 47.7353 -122.3756 152° Southeast 251 289 5,800 -911 Descending Seattle Center
Tue 06:44:22 PM 47.7017 -122.3536 156° South 228 262 5,100 -1,180 Descending Seattle Center
Tue 06:44:43 PM 47.6786 -122.3372 154° Southeast 227 261 4,600 -1,250 Descending Seattle Center
Tue 06:45:10 PM 47.6536 -122.3211 157° South 217 250 4,100 -984 Descending Seattle Center
Tue 06:45:44 PM 47.6236 -122.3169 175° South 207 238 3,600 -984 Descending Seattle Center
Tue 06:46:11 PM 47.6014 -122.3169 180° South 181 208 3,100 -984 Descending Seattle Center
Tue 06:46:45 PM 47.5736 -122.3169 180° South 183 211 2,600 -885 Descending Seattle Center
Tue 06:47:12 PM 47.5553 -122.3194 185° South 154 177 2,200 -787 Descending Seattle Center
Tue 06:47:46 PM 47.5325 -122.3178 177° South 152 175 1,800 -689 Descending Seattle Center
Tue 06:48:13 PM 47.5169 -122.3178 180° South 134 154 1,500 -787 Descending Seattle Center
Tue 06:48:47 PM 47.4925 -122.3178 180° South 137 158 1,000 -787 Descending Seattle Center
Tue 06:49:14 PM 47.4750 -122.3181 181° South 133 153 700 -590 Descending Seattle Center
Tue 06:49:48 PM 47.4575 -122.3183 181° South 136 157 400 -529 Descending Seattle Center
Tue 06:51:00 PM 47.4499 -122.3118 170° South  Level Estimated

Login

Don't have an account? Register now (free) for customized features, flight alerts, and more!